createdAt,value
2018-06-11T00:01:37.098Z,9.37
2018-06-11T00:04:05.273Z,16.53
2018-06-11T00:06:33.458Z,9.33
2018-06-11T00:09:01.634Z,10.37
2018-06-11T00:11:29.845Z,12.63
2018-06-11T00:13:57.785Z,10.10
2018-06-11T00:16:26.013Z,17.80
2018-06-11T00:18:54.205Z,12.20
2018-06-11T00:21:22.413Z,11.00
2018-06-11T00:23:50.592Z,11.73
2018-06-11T00:26:18.786Z,12.10
2018-06-11T00:28:46.977Z,10.37
2018-06-11T00:31:15.225Z,14.00
2018-06-11T00:33:43.437Z,12.50
2018-06-11T00:36:11.649Z,12.13
2018-06-11T00:38:39.842Z,13.23
2018-06-11T00:41:07.994Z,9.10
2018-06-11T00:43:36.189Z,10.60
2018-06-11T00:46:04.430Z,11.60
2018-06-11T00:48:32.605Z,13.33
2018-06-11T00:51:00.772Z,11.33
2018-06-11T00:53:28.973Z,10.03
2018-06-11T00:56:07.557Z,11.73
2018-06-11T00:58:35.770Z,9.53
2018-06-11T01:01:04.165Z,11.07
2018-06-11T01:03:32.334Z,9.50
2018-06-11T01:06:00.562Z,12.43
2018-06-11T01:08:28.762Z,10.07
2018-06-11T01:10:56.938Z,10.00
2018-06-11T01:13:25.140Z,9.17
2018-06-11T01:15:53.314Z,11.53
2018-06-11T01:18:21.543Z,12.53
2018-06-11T01:20:49.758Z,11.43
2018-06-11T01:23:17.941Z,14.27
2018-06-11T01:25:46.098Z,11.10
2018-06-11T01:28:14.362Z,13.13
2018-06-11T01:30:42.650Z,8.90
2018-06-11T01:33:10.908Z,10.13
2018-06-11T01:35:39.125Z,9.70
2018-06-11T01:38:07.361Z,14.30
2018-06-11T01:40:35.565Z,12.53
2018-06-11T01:43:03.872Z,15.47
2018-06-11T01:45:32.092Z,14.60
2018-06-11T01:48:00.277Z,12.23
2018-06-11T01:50:28.488Z,13.20
2018-06-11T01:52:56.643Z,12.30
2018-06-11T01:55:24.853Z,8.60
2018-06-11T01:57:53.034Z,17.07
2018-06-11T02:00:21.213Z,11.33
2018-06-11T02:02:49.393Z,14.67
2018-06-11T02:05:17.642Z,12.40
2018-06-11T02:07:45.818Z,9.83
2018-06-11T02:10:14.001Z,13.13
2018-06-11T02:12:42.154Z,9.83
2018-06-11T02:15:10.336Z,12.13
2018-06-11T02:17:38.585Z,10.70
2018-06-11T02:20:06.775Z,12.27
2018-06-11T02:22:34.930Z,15.00
2018-06-11T02:25:02.873Z,9.77
2018-06-11T02:27:31.144Z,12.07
2018-06-11T02:29:59.354Z,10.83
2018-06-11T02:32:27.587Z,11.43
2018-06-11T02:34:55.742Z,18.73
2018-06-11T02:37:23.907Z,9.90
2018-06-11T02:39:52.087Z,14.07
2018-06-11T02:42:20.254Z,10.60
2018-06-11T02:44:48.425Z,10.37
2018-06-11T02:47:16.558Z,14.10
2018-06-11T02:49:44.747Z,15.50
2018-06-11T02:52:12.974Z,12.10
2018-06-11T02:54:41.142Z,13.77
2018-06-11T02:57:09.354Z,9.90
2018-06-11T02:59:37.532Z,9.93
2018-06-11T03:02:05.747Z,11.57
2018-06-11T03:04:33.965Z,11.53
2018-06-11T03:07:02.094Z,12.67
2018-06-11T03:09:30.329Z,14.67
2018-06-11T03:11:58.487Z,10.03
2018-06-11T03:14:26.690Z,10.87
2018-06-11T03:16:54.902Z,12.00
2018-06-11T03:19:23.094Z,12.10
2018-06-11T03:21:51.269Z,13.80
2018-06-11T03:24:19.485Z,12.33
2018-06-11T03:26:47.665Z,10.90
2018-06-11T03:29:15.743Z,10.83
2018-06-11T03:31:43.993Z,16.47
2018-06-11T03:34:12.170Z,12.83
2018-06-11T03:36:40.353Z,14.07
2018-06-11T03:39:08.914Z,11.50
2018-06-11T03:41:37.441Z,14.73
2018-06-11T03:44:05.593Z,12.43
2018-06-11T03:46:33.777Z,17.80
2018-06-11T03:49:01.994Z,14.20
2018-06-11T03:51:30.184Z,12.57
2018-06-11T03:53:58.417Z,12.47
2018-06-11T03:56:26.649Z,14.07
2018-06-11T03:58:54.802Z,11.40
2018-06-11T04:01:22.970Z,12.57
2018-06-11T04:03:51.149Z,11.60
2018-06-11T04:06:19.426Z,16.43
2018-06-11T04:08:47.590Z,13.60
2018-06-11T04:11:15.782Z,14.10
2018-06-11T04:13:43.946Z,13.50
2018-06-11T04:16:12.173Z,13.70
2018-06-11T04:18:40.390Z,12.53
2018-06-11T04:21:08.598Z,14.03
2018-06-11T04:23:36.549Z,14.77
2018-06-11T04:26:04.885Z,15.40
2018-06-11T04:28:33.089Z,10.53
2018-06-11T04:31:01.213Z,11.57
2018-06-11T04:33:29.346Z,10.63
2018-06-11T04:35:57.510Z,13.47
2018-06-11T04:38:25.693Z,12.53
2018-06-11T04:40:53.841Z,15.43
2018-06-11T04:43:22.089Z,14.00
2018-06-11T04:45:50.273Z,12.37
2018-06-11T04:48:18.486Z,17.70
2018-06-11T04:50:46.734Z,12.77
2018-06-11T04:53:14.909Z,16.37
2018-06-11T04:55:43.278Z,11.47
2018-06-11T04:58:11.961Z,13.73
2018-06-11T05:00:40.166Z,17.10
2018-06-11T05:03:08.366Z,14.40
2018-06-11T05:05:36.522Z,21.03
2018-06-11T05:08:04.762Z,12.57
2018-06-11T05:10:32.914Z,14.90
2018-06-11T05:13:01.284Z,15.50
2018-06-11T05:15:29.538Z,18.13
2018-06-11T05:17:57.713Z,11.07
2018-06-11T05:20:25.918Z,14.50
2018-06-11T05:22:54.086Z,13.83
2018-06-11T05:25:22.326Z,13.00
2018-06-11T05:27:50.533Z,12.03
2018-06-11T05:30:18.717Z,21.13
2018-06-11T05:32:46.882Z,12.67
2018-06-11T05:35:15.038Z,14.43
2018-06-11T05:37:42.996Z,19.47
2018-06-11T05:40:11.234Z,12.33
2018-06-11T05:42:39.477Z,15.20
2018-06-11T05:45:07.656Z,10.60
2018-06-11T05:47:35.859Z,15.93
2018-06-11T05:50:04.106Z,14.77
2018-06-11T05:52:32.301Z,13.63
2018-06-11T05:55:00.505Z,13.80
2018-06-11T05:57:28.706Z,12.80
2018-06-11T05:59:56.682Z,11.53
2018-06-11T06:02:24.822Z,22.30
2018-06-11T06:04:53.018Z,14.53
2018-06-11T06:07:21.225Z,13.37
2018-06-11T06:09:49.498Z,11.77
2018-06-11T06:12:17.706Z,14.10
2018-06-11T06:14:45.881Z,14.40
2018-06-11T06:17:14.046Z,20.70
2018-06-11T06:19:42.322Z,13.90
2018-06-11T06:22:10.550Z,14.20
2018-06-11T06:24:38.737Z,13.30
2018-06-11T06:27:06.919Z,13.57
2018-06-11T06:29:35.154Z,15.00
2018-06-11T06:32:03.099Z,12.87
2018-06-11T06:34:31.296Z,12.93
2018-06-11T06:36:59.493Z,16.23
2018-06-11T06:39:27.637Z,13.80
2018-06-11T06:41:55.849Z,15.67
2018-06-11T06:44:24.014Z,14.40
2018-06-11T06:46:52.261Z,13.57
2018-06-11T06:49:20.438Z,13.90
2018-06-11T06:51:48.632Z,12.97
2018-06-11T06:54:16.817Z,11.70
2018-06-11T06:56:45.042Z,11.87
2018-06-11T06:59:13.285Z,16.90
2018-06-11T07:01:41.574Z,15.83
2018-06-11T07:04:09.766Z,12.90
2018-06-11T07:06:37.987Z,12.57
2018-06-11T07:09:07.892Z,14.93
2018-06-11T07:11:36.426Z,14.93
2018-06-11T07:14:04.598Z,19.23
2018-06-11T07:16:32.822Z,14.30
2018-06-11T07:19:01.049Z,12.63
2018-06-11T07:21:29.326Z,11.80
2018-06-11T07:23:57.570Z,19.40
2018-06-11T07:26:25.802Z,14.70
2018-06-11T07:28:53.982Z,16.27
2018-06-11T07:31:22.219Z,15.43
2018-06-11T07:33:50.385Z,16.90
2018-06-11T07:36:18.606Z,16.77
2018-06-11T07:38:46.802Z,11.90
2018-06-11T07:41:14.954Z,13.17
2018-06-11T07:43:43.093Z,11.00
2018-06-11T07:46:11.322Z,13.30
2018-06-11T07:48:39.498Z,17.63
2018-06-11T07:51:07.698Z,13.30
2018-06-11T07:53:35.922Z,13.13
2018-06-11T07:56:04.074Z,13.50
2018-06-11T07:58:32.361Z,15.17
2018-06-11T08:01:00.543Z,13.83
2018-06-11T08:03:28.713Z,13.23
2018-06-11T08:05:56.903Z,14.73
2018-06-11T08:08:25.185Z,15.37
2018-06-11T08:10:53.331Z,12.77
2018-06-11T08:13:21.584Z,20.37
2018-06-11T08:15:49.757Z,14.77
2018-06-11T08:18:17.965Z,14.60
2018-06-11T08:20:46.188Z,19.30
2018-06-11T08:23:14.358Z,15.47
2018-06-11T08:25:43.100Z,16.67
2018-06-11T08:28:11.354Z,19.07
2018-06-11T08:30:39.537Z,17.07
2018-06-11T08:33:07.781Z,15.57
2018-06-11T08:35:35.999Z,18.33
2018-06-11T08:38:04.166Z,18.30
2018-06-11T08:40:32.366Z,18.10
2018-06-11T08:43:00.611Z,17.47
2018-06-11T08:45:28.774Z,17.17
2018-06-11T08:47:56.937Z,20.60
2018-06-11T08:50:25.122Z,16.63
2018-06-11T08:52:53.322Z,19.13
2018-06-11T08:55:21.501Z,15.33
2018-06-11T08:57:49.749Z,16.00
2018-06-11T09:00:17.925Z,14.70
2018-06-11T09:02:46.090Z,16.17
2018-06-11T09:05:14.846Z,15.67
2018-06-11T09:07:43.022Z,24.70
2018-06-11T09:10:11.242Z,15.03
2018-06-11T09:12:39.431Z,18.33
2018-06-11T09:15:07.639Z,16.00
2018-06-11T09:17:35.910Z,15.03
2018-06-11T09:20:04.180Z,17.80
2018-06-11T09:22:32.381Z,28.63
2018-06-11T09:25:00.585Z,13.43
2018-06-11T09:27:28.769Z,17.23
2018-06-11T09:29:57.005Z,14.03
2018-06-11T09:32:25.249Z,16.60
2018-06-11T09:34:53.478Z,14.90
2018-06-11T09:37:21.705Z,13.20
2018-06-11T09:39:49.855Z,19.27
2018-06-11T09:42:18.048Z,16.93
2018-06-11T09:44:46.247Z,12.87
2018-06-11T09:47:14.465Z,16.17
2018-06-11T09:49:42.666Z,27.57
2018-06-11T09:52:10.854Z,16.17
2018-06-11T09:54:39.042Z,18.90
2018-06-11T09:57:07.227Z,15.03
2018-06-11T09:59:35.403Z,16.40
2018-06-11T10:02:03.674Z,13.10
2018-06-11T10:04:31.937Z,13.97
2018-06-11T10:07:00.102Z,16.97
2018-06-11T10:09:28.334Z,13.20
2018-06-11T10:11:56.503Z,12.53
2018-06-11T10:14:24.726Z,14.77
2018-06-11T10:16:52.926Z,13.83
2018-06-11T10:19:21.188Z,15.40
2018-06-11T10:21:49.339Z,13.47
2018-06-11T10:24:17.533Z,12.70
2018-06-11T10:26:45.753Z,12.67
2018-06-11T10:29:13.961Z,16.10
2018-06-11T10:31:42.122Z,16.57
2018-06-11T10:34:10.305Z,13.43
2018-06-11T10:36:38.565Z,13.13
2018-06-11T10:39:07.882Z,15.07
2018-06-11T10:41:36.036Z,12.37
2018-06-11T10:44:04.225Z,12.73
2018-06-11T10:46:32.164Z,16.67
2018-06-11T10:49:00.374Z,17.07
2018-06-11T10:51:28.635Z,14.80
2018-06-11T10:53:56.890Z,14.30
2018-06-11T10:56:25.101Z,12.10
2018-06-11T10:58:53.317Z,12.33
2018-06-11T11:01:21.583Z,15.83
2018-06-11T11:03:49.762Z,15.57
2018-06-11T11:06:17.921Z,11.73
2018-06-11T11:08:46.109Z,14.53
2018-06-11T11:11:14.294Z,12.17
2018-06-11T11:13:42.524Z,12.60
2018-06-11T11:16:10.722Z,13.57
2018-06-11T11:18:38.942Z,13.70
2018-06-11T11:21:07.113Z,14.20
2018-06-11T11:23:35.283Z,13.27
2018-06-11T11:26:03.419Z,18.57
2018-06-11T11:28:31.658Z,12.97
2018-06-11T11:30:59.851Z,13.63
2018-06-11T11:33:28.033Z,12.50
2018-06-11T11:35:56.248Z,11.97
2018-06-11T11:38:24.481Z,14.73
2018-06-11T11:40:52.646Z,12.47
2018-06-11T11:43:20.827Z,14.67
2018-06-11T11:45:48.984Z,16.13
2018-06-11T11:48:17.209Z,12.50
2018-06-11T11:50:45.488Z,14.97
2018-06-11T11:53:13.698Z,15.63
2018-06-11T11:55:42.597Z,16.07
2018-06-11T11:58:11.936Z,12.80
2018-06-11T12:00:40.093Z,13.40
2018-06-11T12:03:08.294Z,19.60
2018-06-11T12:05:36.517Z,11.73
2018-06-11T12:08:04.745Z,11.47
2018-06-11T12:10:32.978Z,10.77
2018-06-11T12:13:01.698Z,13.03
2018-06-11T12:15:29.946Z,13.43
2018-06-11T12:17:58.150Z,11.60
2018-06-11T12:20:26.365Z,12.40
2018-06-11T12:22:54.525Z,13.77
2018-06-11T12:25:22.715Z,15.67
2018-06-11T12:27:50.924Z,15.40
2018-06-11T12:30:19.823Z,16.33
2018-06-11T12:32:47.989Z,15.00
2018-06-11T12:35:16.158Z,12.07
2018-06-11T12:37:44.321Z,13.60
2018-06-11T12:40:12.474Z,15.03
2018-06-11T12:42:40.634Z,16.20
2018-06-11T12:45:08.798Z,15.57
2018-06-11T12:47:37.043Z,16.87
2018-06-11T12:50:05.226Z,17.37
2018-06-11T12:52:33.439Z,14.97
2018-06-11T12:55:01.622Z,15.73
2018-06-11T12:57:29.814Z,13.63
2018-06-11T12:59:57.965Z,19.27
2018-06-11T13:02:26.159Z,18.33
2018-06-11T13:04:54.321Z,12.57
2018-06-11T13:07:22.530Z,18.23
2018-06-11T13:09:50.765Z,16.63
2018-06-11T13:12:18.721Z,13.73
2018-06-11T13:14:46.890Z,20.17
2018-06-11T13:17:15.121Z,18.50
2018-06-11T13:19:43.294Z,18.73
2018-06-11T13:22:12.188Z,14.20
2018-06-11T13:24:40.326Z,12.80
2018-06-11T13:27:08.536Z,16.67
2018-06-11T13:29:36.747Z,21.33
2018-06-11T13:32:04.958Z,14.83
2018-06-11T13:34:33.126Z,14.20
2018-06-11T13:37:01.111Z,15.70
2018-06-11T13:39:29.258Z,16.50
2018-06-11T13:41:57.513Z,25.93
2018-06-11T13:44:25.708Z,15.77
2018-06-11T13:46:53.895Z,17.83
2018-06-11T13:49:22.070Z,16.90
2018-06-11T13:51:50.242Z,15.40
2018-06-11T13:54:18.468Z,16.83
2018-06-11T13:56:46.685Z,18.67
2018-06-11T13:59:14.899Z,17.40
2018-06-11T14:01:43.071Z,20.80
2018-06-11T14:04:11.223Z,16.67
2018-06-11T14:06:39.470Z,16.27
2018-06-11T14:09:08.129Z,13.83
2018-06-11T14:11:36.520Z,16.27
2018-06-11T14:14:04.681Z,17.87
2018-06-11T14:16:32.866Z,15.70
2018-06-11T14:19:01.081Z,17.73
2018-06-11T14:21:29.285Z,18.07
2018-06-11T14:23:57.529Z,16.53
2018-06-11T14:26:25.697Z,17.40
2018-06-11T14:28:53.901Z,16.43
2018-06-11T14:31:22.095Z,18.67
2018-06-11T14:33:50.274Z,17.27
2018-06-11T14:36:18.481Z,18.50
2018-06-11T14:38:46.673Z,18.23
2018-06-11T14:41:14.949Z,19.67
2018-06-11T14:43:43.117Z,21.90
2018-06-11T14:46:11.281Z,26.17
2018-06-11T14:48:39.429Z,20.97
2018-06-11T14:51:07.650Z,20.23
2018-06-11T14:53:35.905Z,25.20
2018-06-11T14:56:04.117Z,26.13
2018-06-11T14:58:32.301Z,25.73
2018-06-11T15:01:00.545Z,21.03
2018-06-11T15:03:28.698Z,23.53
2018-06-11T15:05:56.896Z,20.90
2018-06-11T15:08:25.057Z,20.93
2018-06-11T15:10:53.258Z,23.00
2018-06-11T15:13:21.461Z,24.57
2018-06-11T15:15:49.715Z,20.57
2018-06-11T15:18:18.455Z,24.37
2018-06-11T15:20:46.674Z,24.33
2018-06-11T15:23:14.869Z,24.70
2018-06-11T15:25:43.050Z,23.00
2018-06-11T15:28:11.266Z,29.60
2018-06-11T15:30:39.458Z,23.77
2018-06-11T15:33:07.705Z,23.63
2018-06-11T15:35:35.968Z,29.20
2018-06-11T15:38:04.170Z,21.00
2018-06-11T15:40:32.347Z,24.37
2018-06-11T15:43:00.514Z,27.07
2018-06-11T15:45:28.814Z,25.40
2018-06-11T15:47:57.029Z,24.27
2018-06-11T15:50:25.219Z,22.27
2018-06-11T15:52:53.427Z,25.30
2018-06-11T15:55:21.617Z,25.90
2018-06-11T15:57:49.797Z,25.60
2018-06-11T16:00:17.977Z,24.73
2018-06-11T16:02:46.682Z,25.90
2018-06-11T16:05:14.916Z,32.23
2018-06-11T16:07:43.090Z,25.80
2018-06-11T16:10:11.303Z,31.37
2018-06-11T16:12:39.511Z,21.47
2018-06-11T16:15:07.680Z,24.40
2018-06-11T16:17:35.858Z,22.97
2018-06-11T16:20:03.837Z,22.50
2018-06-11T16:22:32.060Z,23.27
2018-06-11T16:25:00.197Z,27.40
2018-06-11T16:27:28.442Z,17.20
2018-06-11T16:29:56.719Z,22.00
2018-06-11T16:32:24.914Z,27.13
2018-06-11T16:34:53.096Z,24.10
2018-06-11T16:37:21.278Z,24.27
2018-06-11T16:39:49.458Z,25.30
2018-06-11T16:42:18.143Z,22.90
2018-06-11T16:44:46.317Z,25.13
2018-06-11T16:47:14.592Z,23.67
2018-06-11T16:49:42.757Z,19.53
2018-06-11T16:52:10.993Z,21.90
2018-06-11T16:54:39.181Z,24.17
2018-06-11T16:57:07.238Z,22.23
2018-06-11T16:59:35.461Z,21.47
2018-06-11T17:02:03.828Z,17.50
2018-06-11T17:04:33.944Z,20.53
2018-06-11T17:07:03.946Z,18.90
2018-06-11T17:09:32.361Z,23.37
2018-06-11T17:12:00.517Z,25.50
2018-06-11T17:14:30.109Z,31.40
2018-06-11T17:17:00.033Z,23.57
2018-06-11T17:19:29.699Z,18.60
2018-06-11T17:22:00.045Z,19.90
2018-06-11T17:24:30.186Z,26.27
2018-06-11T17:26:59.898Z,24.20
2018-06-11T17:29:30.393Z,23.30
2018-06-11T17:32:00.615Z,20.83
2018-06-11T17:34:30.236Z,24.00
2018-06-11T17:37:00.462Z,21.50
2018-06-11T17:39:30.243Z,18.70
2018-06-11T17:42:00.155Z,21.80
2018-06-11T17:44:30.385Z,17.87
2018-06-11T17:47:00.282Z,25.90
2018-06-11T17:49:30.482Z,20.63
2018-06-11T17:51:58.814Z,21.53
2018-06-11T17:54:27.033Z,28.97
2018-06-11T17:56:55.205Z,24.50
2018-06-11T17:59:23.375Z,21.50
2018-06-11T18:01:51.579Z,25.90
2018-06-11T18:04:19.836Z,19.20
2018-06-11T18:06:47.962Z,18.47
2018-06-11T18:09:16.168Z,15.67
2018-06-11T18:11:44.365Z,19.00
2018-06-11T18:14:12.578Z,18.43
2018-06-11T18:16:40.764Z,22.10
2018-06-11T18:19:08.997Z,20.17
2018-06-11T18:21:37.178Z,19.07
2018-06-11T18:24:05.438Z,17.77
2018-06-11T18:26:33.630Z,21.83
2018-06-11T18:29:01.810Z,20.33
2018-06-11T18:31:30.022Z,22.60
2018-06-11T18:33:58.180Z,20.83
2018-06-11T18:36:26.335Z,19.27
2018-06-11T18:38:54.525Z,16.20
2018-06-11T18:41:22.725Z,24.77
2018-06-11T18:43:50.904Z,17.40
2018-06-11T18:46:19.057Z,16.87
2018-06-11T18:48:47.291Z,17.67
2018-06-11T18:51:15.454Z,19.20
2018-06-11T18:53:43.666Z,15.23
2018-06-11T18:56:11.901Z,14.77
2018-06-11T18:58:40.085Z,21.17
2018-06-11T19:01:08.289Z,16.50
2018-06-11T19:03:36.485Z,16.33
2018-06-11T19:06:04.730Z,19.93
2018-06-11T19:08:32.934Z,16.80
2018-06-11T19:11:01.090Z,18.90
2018-06-11T19:13:29.226Z,22.10
2018-06-11T19:15:57.486Z,19.90
2018-06-11T19:18:25.640Z,14.47
2018-06-11T19:20:53.820Z,17.20
2018-06-11T19:23:22.010Z,17.70
2018-06-11T19:25:50.265Z,16.73
2018-06-11T19:28:18.438Z,19.93
2018-06-11T19:30:46.668Z,14.47
2018-06-11T19:33:14.902Z,15.90
2018-06-11T19:35:43.063Z,12.07
2018-06-11T19:38:11.253Z,15.43
2018-06-11T19:40:39.453Z,17.20
2018-06-11T19:43:07.621Z,17.30
2018-06-11T19:45:36.251Z,14.07
2018-06-11T19:48:04.422Z,14.90
2018-06-11T19:50:32.614Z,14.50
2018-06-11T19:53:00.902Z,13.93
2018-06-11T19:55:29.017Z,14.63
2018-06-11T19:57:57.259Z,12.10
2018-06-11T20:00:25.561Z,16.00
2018-06-11T20:02:53.787Z,10.80
2018-06-11T20:05:21.978Z,12.37
2018-06-11T20:07:50.185Z,10.80
2018-06-11T20:10:18.429Z,13.80
2018-06-11T20:12:46.601Z,9.17
2018-06-11T20:15:15.694Z,9.87
2018-06-11T20:17:43.890Z,15.73
2018-06-11T20:20:12.090Z,11.50
2018-06-11T20:22:40.349Z,9.10
2018-06-11T20:25:08.533Z,10.13
2018-06-11T20:27:36.718Z,9.27
2018-06-11T20:30:05.085Z,14.87
2018-06-11T20:32:33.315Z,7.37
2018-06-11T20:35:01.457Z,9.00
2018-06-11T20:37:29.607Z,12.27
2018-06-11T20:39:57.829Z,15.40
2018-06-11T20:42:26.033Z,9.70
2018-06-11T20:44:54.246Z,8.23
2018-06-11T20:47:22.148Z,9.97
2018-06-11T20:49:50.313Z,8.90
2018-06-11T20:52:18.474Z,8.60
2018-06-11T20:54:46.671Z,8.40
2018-06-11T20:57:14.874Z,11.90
2018-06-11T20:59:43.118Z,8.90
2018-06-11T21:02:11.370Z,8.00
2018-06-11T21:04:39.401Z,8.13
2018-06-11T21:07:07.654Z,12.90
2018-06-11T21:09:35.865Z,9.13
2018-06-11T21:12:04.058Z,9.10
2018-06-11T21:14:32.008Z,8.10
2018-06-11T21:17:00.242Z,11.93
2018-06-11T21:19:28.525Z,8.70
2018-06-11T21:21:56.753Z,7.43
2018-06-11T21:24:24.933Z,8.47
2018-06-11T21:26:53.160Z,10.07
2018-06-11T21:29:21.312Z,17.67
2018-06-11T21:31:49.550Z,15.37
2018-06-11T21:34:17.767Z,13.93
2018-06-11T21:36:45.970Z,15.43
2018-06-11T21:39:14.138Z,9.10
2018-06-11T21:41:42.268Z,14.10
2018-06-11T21:44:10.530Z,11.80
2018-06-11T21:46:38.874Z,8.40
2018-06-11T21:49:07.051Z,10.13
2018-06-11T21:51:35.050Z,8.30
2018-06-11T21:54:03.274Z,6.83
2018-06-11T21:56:31.445Z,8.40
2018-06-11T21:58:59.629Z,8.93
2018-06-11T22:01:27.818Z,9.97
2018-06-11T22:03:56.183Z,14.90
2018-06-11T22:06:24.258Z,7.40
2018-06-11T22:08:52.482Z,7.90
2018-06-11T22:11:20.682Z,10.93
2018-06-11T22:13:48.905Z,11.73
2018-06-11T22:16:16.889Z,10.30
2018-06-11T22:18:45.062Z,11.20
2018-06-11T22:21:13.237Z,9.17
2018-06-11T22:23:41.365Z,8.80
2018-06-11T22:26:09.534Z,7.73
2018-06-11T22:28:37.793Z,7.40
2018-06-11T22:31:06.020Z,7.30
2018-06-11T22:33:34.242Z,12.40
2018-06-11T22:36:02.450Z,14.47
2018-06-11T22:38:30.654Z,10.17
2018-06-11T22:40:58.881Z,9.73
2018-06-11T22:43:27.616Z,12.43
2018-06-11T22:45:55.810Z,7.77
2018-06-11T22:48:24.133Z,6.67
2018-06-11T22:50:52.323Z,7.20
2018-06-11T22:53:20.613Z,8.40
2018-06-11T22:55:48.793Z,9.37
2018-06-11T22:58:16.980Z,7.73
2018-06-11T23:00:45.139Z,8.27
2018-06-11T23:03:13.285Z,9.03
2018-06-11T23:05:41.558Z,8.37
2018-06-11T23:08:09.723Z,15.93
2018-06-11T23:10:38.023Z,7.10
2018-06-11T23:13:06.234Z,8.73
2018-06-11T23:15:34.454Z,6.83
2018-06-11T23:18:02.622Z,10.07
2018-06-11T23:20:30.862Z,8.23
2018-06-11T23:22:59.029Z,8.13
2018-06-11T23:25:27.293Z,6.33
2018-06-11T23:27:55.482Z,7.97
2018-06-11T23:30:23.654Z,8.43
2018-06-11T23:32:51.853Z,9.83
2018-06-11T23:35:20.030Z,10.00
2018-06-11T23:37:48.222Z,9.80
2018-06-11T23:40:16.406Z,7.20
2018-06-11T23:42:44.626Z,9.27
2018-06-11T23:46:10.414Z,18.57
2018-06-11T23:55:19.360Z,6.67
2018-06-11T23:58:14.250Z,8.17
